Time;durP1;ratioP1;P1;durP2;ratioP2;P2;SDS_P1;SDS_P2;PMS_P1;PMS_P2;Temp;Humidity;BMP_temperature;BMP_pressure;BME280_temperature;BME280_humidity;BME280_pressure;Samples;Min_cycle;Max_cycle;Signal;HPM_P1;HPM_P2
2023/07/23 00:02:03;;;;;;;2.90;2.30;;;16.20;99.90;;;;;;5013506;28;20478;-73
2023/07/23 00:04:30;;;;;;;3.73;2.27;;;16.10;99.90;;;;;;5013701;28;20489;-74
2023/07/23 00:06:57;;;;;;;2.93;2.30;;;16.10;99.90;;;;;;5013015;28;20461;-74
2023/07/23 00:09:23;;;;;;;3.20;2.37;;;16.10;99.90;;;;;;5013639;28;20468;-74
2023/07/23 00:11:50;;;;;;;2.70;2.17;;;16.10;99.90;;;;;;5013296;28;20472;-74
2023/07/23 00:14:17;;;;;;;2.23;2.03;;;16.10;99.90;;;;;;5013339;28;21028;-73
2023/07/23 00:16:44;;;;;;;2.50;2.20;;;16.20;99.90;;;;;;5013049;28;20473;-74
2023/07/23 00:19:17;;;;;;;2.67;2.40;;;16.30;99.90;;;;;;5013374;28;20529;-74
2023/07/23 00:21:44;;;;;;;2.60;2.30;;;16.30;99.90;;;;;;5013350;28;20914;-73
2023/07/23 00:24:10;;;;;;;2.80;2.13;;;16.30;99.90;;;;;;5013379;28;20456;-73
2023/07/23 00:26:37;;;;;;;3.87;2.47;;;16.40;99.90;;;;;;5013014;28;20473;-74
2023/07/23 00:29:04;;;;;;;2.43;2.20;;;16.50;99.90;;;;;;5013185;28;20491;-72
2023/07/23 00:31:30;;;;;;;3.50;2.07;;;16.50;99.90;;;;;;5013053;28;21266;-73
2023/07/23 00:33:57;;;;;;;1.93;1.73;;;16.60;99.90;;;;;;5012863;28;20481;-73
2023/07/23 00:36:25;;;;;;;2.23;2.03;;;16.60;99.90;;;;;;5012866;28;20461;-72
2023/07/23 00:38:52;;;;;;;4.03;2.17;;;16.70;99.90;;;;;;5012683;28;20480;-72
2023/07/23 00:41:19;;;;;;;2.63;2.40;;;16.70;99.90;;;;;;5018164;28;20463;-73
2023/07/23 00:43:45;;;;;;;2.00;1.80;;;16.70;99.90;;;;;;5032551;28;20845;-74
2023/07/23 00:46:12;;;;;;;2.07;1.90;;;16.80;99.90;;;;;;5032083;28;20468;-74
2023/07/23 00:48:39;;;;;;;2.77;1.80;;;16.80;99.90;;;;;;5032013;28;20484;-73
2023/07/23 00:56:11;;;;;;;2.60;2.00;;;16.90;99.90;;;;;;5030798;28;20504;-71
2023/07/23 00:58:37;;;;;;;2.70;2.20;;;16.90;99.90;;;;;;5025556;28;20480;-71
2023/07/23 01:01:04;;;;;;;2.30;2.10;;;16.90;99.90;;;;;;5013029;28;20473;-71
2023/07/23 01:03:31;;;;;;;3.20;2.27;;;16.90;99.90;;;;;;5012895;28;20465;-71
2023/07/23 01:06:02;;;;;;;2.77;2.27;;;16.90;99.90;;;;;;5012690;28;20470;-71
2023/07/23 01:08:29;;;;;;;2.43;2.23;;;16.90;99.90;;;;;;5012756;28;20481;-71
2023/07/23 01:10:56;;;;;;;2.47;2.27;;;17.00;99.90;;;;;;5012883;28;20503;-70
2023/07/23 01:13:25;;;;;;;2.70;2.20;;;16.90;99.90;;;;;;5017817;28;20464;-71
2023/07/23 01:15:53;;;;;;;2.60;2.00;;;16.90;99.90;;;;;;5031669;28;20484;-71
2023/07/23 01:18:21;;;;;;;2.70;2.13;;;16.90;99.90;;;;;;5032304;28;20509;-71
2023/07/23 01:20:48;;;;;;;2.87;2.60;;;16.80;99.90;;;;;;5032035;28;20468;-71
2023/07/23 01:23:16;;;;;;;4.50;3.00;;;16.80;99.90;;;;;;5032279;28;20464;-70
2023/07/23 01:25:43;;;;;;;2.20;2.00;;;16.80;99.90;;;;;;5031646;28;20463;-71
2023/07/23 01:28:09;;;;;;;3.20;2.37;;;16.80;99.90;;;;;;5031897;28;20987;-71
2023/07/23 01:30:36;;;;;;;2.90;1.97;;;16.80;99.90;;;;;;5031721;28;20473;-71
2023/07/23 01:33:04;;;;;;;2.33;2.10;;;16.70;99.90;;;;;;5031987;28;20464;-71
2023/07/23 01:35:31;;;;;;;3.67;2.17;;;16.70;99.90;;;;;;5031325;28;21037;-72
2023/07/23 01:37:59;;;;;;;2.83;2.10;;;16.60;99.90;;;;;;5031688;28;20994;-70
2023/07/23 01:40:27;;;;;;;5.73;2.40;;;16.60;99.90;;;;;;5031599;28;20463;-71
2023/07/23 01:42:55;;;;;;;2.07;1.87;;;16.60;99.90;;;;;;5031682;28;20464;-71
2023/07/23 01:45:21;;;;;;;2.90;2.20;;;16.60;99.90;;;;;;5031388;28;20474;-71
2023/07/23 01:47:48;;;;;;;2.10;1.83;;;16.60;99.90;;;;;;5031577;28;20495;-70
2023/07/23 01:50:15;;;;;;;1.87;1.70;;;16.60;99.90;;;;;;5031790;28;20463;-70
2023/07/23 01:52:42;;;;;;;5.57;2.10;;;16.60;99.90;;;;;;5031507;28;21134;-71
2023/07/23 01:55:09;;;;;;;2.57;2.13;;;16.60;99.90;;;;;;5031072;28;20484;-71
2023/07/23 01:57:37;;;;;;;1.80;1.70;;;16.60;99.90;;;;;;5030727;28;20493;-71
2023/07/23 02:00:05;;;;;;;2.20;2.00;;;16.60;99.90;;;;;;5031077;28;20487;-71
2023/07/23 02:02:32;;;;;;;2.50;2.20;;;16.60;99.90;;;;;;5031573;28;20462;-71
2023/07/23 02:04:59;;;;;;;2.50;2.17;;;16.60;99.90;;;;;;5031138;28;20462;-70
2023/07/23 02:07:26;;;;;;;2.50;2.30;;;16.50;99.90;;;;;;5031095;28;20482;-71
2023/07/23 02:09:52;;;;;;;2.13;1.93;;;16.50;99.90;;;;;;5031455;28;20471;-70
2023/07/23 02:12:19;;;;;;;2.80;2.07;;;16.50;99.90;;;;;;5031395;28;20487;-71
2023/07/23 02:14:47;;;;;;;2.57;2.37;;;16.50;99.90;;;;;;5030971;28;20487;-71
2023/07/23 02:17:14;;;;;;;2.70;2.10;;;16.60;99.90;;;;;;5030671;28;21008;-71
2023/07/23 02:19:40;;;;;;;2.07;1.83;;;16.60;99.90;;;;;;5031235;28;20488;-72
2023/07/23 02:22:08;;;;;;;3.50;2.30;;;16.60;99.90;;;;;;5031119;28;20473;-72
2023/07/23 02:24:34;;;;;;;2.43;2.03;;;16.60;99.90;;;;;;5030733;28;20467;-71
2023/07/23 02:27:01;;;;;;;3.77;2.27;;;16.60;99.90;;;;;;5030659;28;20480;-71
2023/07/23 02:29:28;;;;;;;2.20;2.00;;;16.60;99.90;;;;;;5030702;28;20460;-71
2023/07/23 02:31:56;;;;;;;2.10;1.90;;;16.60;99.90;;;;;;5030765;28;20468;-70
2023/07/23 02:34:22;;;;;;;2.63;2.37;;;16.60;99.90;;;;;;5030646;28;20466;-71
2023/07/23 02:36:49;;;;;;;1.87;1.67;;;16.60;99.90;;;;;;5030384;28;20464;-71
2023/07/23 02:39:16;;;;;;;2.30;2.10;;;16.60;99.90;;;;;;5030671;28;20461;-71
2023/07/23 02:41:42;;;;;;;2.33;2.13;;;16.60;99.90;;;;;;5030711;28;20471;-71
2023/07/23 02:44:09;;;;;;;2.53;2.33;;;16.60;99.90;;;;;;5030462;28;20950;-71
2023/07/23 02:46:36;;;;;;;2.47;1.97;;;16.60;99.90;;;;;;5030023;28;20471;-71
2023/07/23 02:49:04;;;;;;;2.20;1.97;;;16.60;99.90;;;;;;5030509;28;20485;-71
2023/07/23 02:51:30;;;;;;;2.07;1.87;;;16.60;99.90;;;;;;5030489;28;20463;-71
2023/07/23 02:53:57;;;;;;;2.80;2.07;;;16.60;99.90;;;;;;5030534;28;20464;-71
2023/07/23 02:56:24;;;;;;;4.10;2.30;;;16.50;99.90;;;;;;5030084;28;20482;-71
2023/07/23 02:58:51;;;;;;;2.53;2.13;;;16.50;99.90;;;;;;5030527;28;20491;-71
2023/07/23 03:01:18;;;;;;;3.60;2.43;;;16.50;99.90;;;;;;5030364;28;20484;-71
2023/07/23 03:03:47;;;;;;;3.03;2.03;;;16.50;99.90;;;;;;5030363;28;20462;-72
2023/07/23 03:06:16;;;;;;;2.20;2.00;;;16.40;99.90;;;;;;5029905;28;20459;-71
2023/07/23 03:08:43;;;;;;;2.23;1.87;;;16.40;99.90;;;;;;5030222;28;20562;-71
2023/07/23 03:11:09;;;;;;;2.47;2.13;;;16.30;99.90;;;;;;5030334;28;20467;-71
2023/07/23 03:13:36;;;;;;;3.83;2.50;;;16.20;99.90;;;;;;5029421;28;20474;-71
2023/07/23 03:16:03;;;;;;;3.03;2.17;;;16.20;99.90;;;;;;5029486;28;20492;-71
2023/07/23 03:18:30;;;;;;;2.23;1.90;;;16.10;99.90;;;;;;5030112;28;20534;-71
2023/07/23 03:20:56;;;;;;;2.63;2.10;;;16.10;99.90;;;;;;5030384;28;20459;-71
2023/07/23 03:23:25;;;;;;;1.83;1.73;;;16.00;99.90;;;;;;5030075;28;20489;-71
2023/07/23 03:25:51;;;;;;;2.17;1.97;;;16.00;99.90;;;;;;5029906;28;20466;-70
2023/07/23 03:28:18;;;;;;;2.00;1.80;;;16.00;99.90;;;;;;5029907;28;20485;-71
2023/07/23 03:30:45;;;;;;;3.33;2.53;;;16.00;99.90;;;;;;5029990;28;20477;-71
2023/07/23 03:33:11;;;;;;;2.90;2.37;;;16.00;99.90;;;;;;5029930;28;20464;-71
2023/07/23 03:35:38;;;;;;;2.80;2.00;;;16.10;99.90;;;;;;5029557;28;20833;-71
2023/07/23 03:38:05;;;;;;;3.13;2.30;;;16.10;99.90;;;;;;5029929;28;20480;-71
2023/07/23 03:40:33;;;;;;;3.43;1.77;;;16.10;99.90;;;;;;5029881;28;20473;-71
2023/07/23 03:42:58;;;;;;;2.77;2.27;;;16.10;99.90;;;;;;5030095;28;20490;-70
2023/07/23 03:45:25;;;;;;;3.90;2.50;;;16.10;99.90;;;;;;5029601;28;20461;-71
2023/07/23 03:47:52;;;;;;;3.30;2.03;;;16.10;99.90;;;;;;5029818;28;20229;-71
2023/07/23 03:50:18;;;;;;;2.60;2.17;;;16.10;99.90;;;;;;5029877;28;20465;-70
2023/07/23 03:52:45;;;;;;;2.90;2.23;;;16.10;99.90;;;;;;5029853;28;21040;-72
2023/07/23 03:55:12;;;;;;;2.30;1.83;;;16.20;99.90;;;;;;5029529;28;20493;-71
2023/07/23 03:57:40;;;;;;;2.03;1.83;;;16.20;99.90;;;;;;5029319;28;20489;-71
2023/07/23 04:00:08;;;;;;;2.40;2.20;;;16.20;99.90;;;;;;5029782;28;20468;-71
2023/07/23 04:02:35;;;;;;;2.30;2.10;;;16.30;99.90;;;;;;5029749;28;20470;-72
2023/07/23 04:05:02;;;;;;;3.77;2.20;;;16.30;99.90;;;;;;5029754;28;20980;-71
2023/07/23 04:07:29;;;;;;;2.60;2.40;;;16.30;99.90;;;;;;5029245;28;20497;-71
2023/07/23 04:09:55;;;;;;;2.53;2.20;;;16.30;99.90;;;;;;5029929;28;20467;-70
2023/07/23 04:12:23;;;;;;;2.57;2.37;;;16.30;99.90;;;;;;5029620;28;20459;-71
2023/07/23 04:14:51;;;;;;;2.50;1.97;;;16.30;99.90;;;;;;5029504;28;20457;-71
2023/07/23 04:17:18;;;;;;;2.10;1.87;;;16.40;99.90;;;;;;5029300;28;20512;-71
2023/07/23 04:19:44;;;;;;;2.70;2.10;;;16.40;99.90;;;;;;5029586;28;20466;-72
2023/07/23 04:22:11;;;;;;;3.97;2.80;;;16.40;99.90;;;;;;5029632;28;20467;-71
2023/07/23 04:24:38;;;;;;;2.10;1.90;;;16.40;99.90;;;;;;5031614;28;20467;-71
2023/07/23 04:27:05;;;;;;;2.57;1.70;;;16.40;99.90;;;;;;5032718;28;20859;-71
2023/07/23 04:29:31;;;;;;;3.20;2.13;;;16.40;99.90;;;;;;5033192;28;20483;-71
2023/07/23 04:31:59;;;;;;;2.80;2.30;;;16.50;99.90;;;;;;5032982;28;20463;-71
2023/07/23 04:34:26;;;;;;;2.20;1.87;;;16.50;99.90;;;;;;5032306;28;20466;-71
2023/07/23 04:36:53;;;;;;;2.30;2.10;;;16.50;99.90;;;;;;5025715;28;20485;-71
2023/07/23 04:39:20;;;;;;;2.60;2.30;;;16.50;99.90;;;;;;5031174;28;20839;-71
2023/07/23 04:41:46;;;;;;;3.40;2.40;;;16.50;99.90;;;;;;5032508;28;20470;-71
2023/07/23 04:44:13;;;;;;;2.57;2.10;;;16.60;99.90;;;;;;5032505;28;20554;-71
2023/07/23 04:46:40;;;;;;;2.30;2.00;;;16.60;99.90;;;;;;5031775;28;20461;-70
2023/07/23 04:49:08;;;;;;;2.20;2.00;;;16.60;99.90;;;;;;5032437;28;20467;-70
2023/07/23 04:51:35;;;;;;;3.00;2.00;;;16.60;99.90;;;;;;5032401;28;20467;-71
2023/07/23 04:54:01;;;;;;;2.10;1.90;;;16.60;99.90;;;;;;5032286;28;20460;-71
2023/07/23 04:56:28;;;;;;;2.67;2.37;;;16.70;99.90;;;;;;5031370;28;20558;-70
2023/07/23 04:58:55;;;;;;;2.60;1.97;;;16.70;99.90;;;;;;5032151;28;20490;-71
2023/07/23 05:01:22;;;;;;;3.10;2.50;;;16.80;99.90;;;;;;5032053;28;20464;-71
2023/07/23 05:03:49;;;;;;;2.27;1.80;;;16.90;99.90;;;;;;5024870;28;20498;-71
2023/07/23 05:06:17;;;;;;;2.60;1.97;;;16.90;99.90;;;;;;5019957;28;20460;-71
2023/07/23 05:08:43;;;;;;;3.17;2.07;;;16.90;99.90;;;;;;5022145;28;20494;-71
2023/07/23 05:11:10;;;;;;;2.03;1.83;;;17.00;99.90;;;;;;5020712;28;20461;-72
2023/07/23 05:13:37;;;;;;;2.67;2.07;;;17.00;99.90;;;;;;5020608;28;20468;-71
2023/07/23 05:16:04;;;;;;;3.40;2.37;;;17.00;99.90;;;;;;5020993;28;20486;-71
2023/07/23 05:18:31;;;;;;;2.73;1.70;;;17.10;99.90;;;;;;5022179;28;20492;-72
2023/07/23 05:20:58;;;;;;;2.10;1.80;;;17.10;99.90;;;;;;5020719;28;20466;-71
2023/07/23 05:23:26;;;;;;;2.77;2.17;;;17.10;99.90;;;;;;5020739;28;20456;-71
2023/07/23 05:25:56;;;;;;;3.00;2.13;;;17.10;99.90;;;;;;5022191;28;20831;-71
2023/07/23 05:28:23;;;;;;;2.63;1.90;;;17.20;99.90;;;;;;5021708;28;20480;-71
2023/07/23 05:30:50;;;;;;;3.07;2.03;;;17.30;99.90;;;;;;5020155;28;20464;-72
2023/07/23 05:33:16;;;;;;;2.47;2.27;;;17.30;99.90;;;;;;5020591;28;20460;-71
2023/07/23 05:35:43;;;;;;;2.77;2.07;;;17.30;99.90;;;;;;5019884;28;20850;-71
2023/07/23 05:38:10;;;;;;;2.67;2.13;;;17.40;99.90;;;;;;5021578;28;20485;-72
2023/07/23 05:40:38;;;;;;;2.43;1.90;;;17.40;99.90;;;;;;5020737;28;20468;-71
2023/07/23 05:43:09;;;;;;;2.20;2.00;;;17.50;99.90;;;;;;5020886;28;20488;-71
2023/07/23 05:45:36;;;;;;;1.93;1.70;;;17.60;99.90;;;;;;5019359;28;20504;-71
2023/07/23 05:48:03;;;;;;;2.07;1.83;;;17.70;99.90;;;;;;5022425;28;21064;-72
2023/07/23 05:50:29;;;;;;;2.87;2.03;;;17.80;99.90;;;;;;5020879;28;20472;-71
2023/07/23 05:52:56;;;;;;;2.40;2.10;;;17.90;99.90;;;;;;5019831;28;20465;-71
2023/07/23 05:55:23;;;;;;;3.47;2.20;;;17.90;99.90;;;;;;5021262;28;20927;-72
2023/07/23 05:57:51;;;;;;;2.63;2.43;;;18.00;99.90;;;;;;5020895;28;20859;-72
2023/07/23 06:00:18;;;;;;;2.13;1.93;;;18.10;99.90;;;;;;5020777;28;20468;-71
2023/07/23 06:02:44;;;;;;;2.10;1.90;;;18.20;99.90;;;;;;5022096;28;20461;-71
2023/07/23 06:05:11;;;;;;;2.40;2.20;;;18.30;99.90;;;;;;5020613;28;20462;-72
2023/07/23 06:07:38;;;;;;;1.70;1.47;;;18.40;99.90;;;;;;5020054;28;20488;-71
2023/07/23 06:10:05;;;;;;;2.20;1.60;;;18.50;99.90;;;;;;5022093;28;20469;-71
2023/07/23 06:12:33;;;;;;;2.63;2.10;;;18.60;99.90;;;;;;5020297;28;20466;-71
2023/07/23 06:15:01;;;;;;;4.00;2.30;;;18.70;99.90;;;;;;5020433;28;20469;-72
2023/07/23 06:17:27;;;;;;;3.43;2.30;;;18.80;99.90;;;;;;5020050;28;20529;-71
2023/07/23 06:19:54;;;;;;;2.53;2.20;;;18.90;99.90;;;;;;5019850;28;20471;-71
2023/07/23 06:22:21;;;;;;;2.47;2.00;;;19.10;99.90;;;;;;5019160;28;20489;-71
2023/07/23 06:24:47;;;;;;;2.53;2.33;;;19.20;99.90;;;;;;5019386;28;20885;-71
2023/07/23 06:27:14;;;;;;;2.47;2.27;;;19.30;99.90;;;;;;5020768;28;20476;-72
2023/07/23 06:29:41;;;;;;;4.03;2.30;;;19.30;99.90;;;;;;5021239;28;20722;-71
2023/07/23 06:32:09;;;;;;;3.03;2.30;;;19.40;99.90;;;;;;5019790;28;20459;-71
2023/07/23 06:34:36;;;;;;;2.77;2.00;;;19.50;99.90;;;;;;5020669;28;20469;-71
2023/07/23 06:37:03;;;;;;;2.60;1.90;;;19.60;99.90;;;;;;5021395;28;20503;-71
2023/07/23 06:39:30;;;;;;;1.97;1.70;;;19.60;99.90;;;;;;5018183;28;20490;-71
2023/07/23 06:41:57;;;;;;;2.87;1.90;;;19.70;99.90;;;;;;5016348;28;20471;-71
2023/07/23 06:44:23;;;;;;;2.57;2.27;;;19.80;99.90;;;;;;5010407;28;20460;-71
2023/07/23 06:46:50;;;;;;;2.40;2.17;;;19.80;99.90;;;;;;5022565;28;20453;-72
2023/07/23 06:49:18;;;;;;;2.50;1.97;;;19.90;99.90;;;;;;5030554;28;20553;-71
2023/07/23 06:51:45;;;;;;;2.90;2.47;;;20.00;99.90;;;;;;5022847;28;20473;-72
2023/07/23 06:54:42;;;;;;;2.63;2.23;;;20.00;99.90;;;;;;5063738;22;20498;-91
2023/07/23 06:57:26;;;;;;;2.67;2.17;;;20.10;99.90;;;;;;5041876;28;20491;-91
2023/07/23 07:03:17;;;;;;;2.67;2.20;;;20.30;99.90;;;;;;5042574;28;20518;-91
2023/07/23 07:06:15;;;;;;;2.33;1.97;;;20.40;99.90;;;;;;5052195;28;20516;-91
2023/07/23 07:12:13;;;;;;;1.70;1.60;;;20.60;99.90;;;;;;5053300;28;20497;-92
2023/07/23 07:15:24;;;;;;;2.23;2.03;;;20.70;99.90;;;;;;5056202;28;20443;-93
2023/07/23 07:22:09;;;;;;;2.27;2.00;;;20.90;99.90;;;;;;5055458;28;20454;-93
2023/07/23 07:24:37;;;;;;;2.70;1.90;;;21.00;99.90;;;;;;5057738;22;20479;-72
2023/07/23 07:27:08;;;;;;;2.10;1.90;;;21.00;99.90;;;;;;5029495;28;20483;-73
2023/07/23 07:29:35;;;;;;;2.63;2.30;;;21.10;99.90;;;;;;5029964;28;20529;-73
2023/07/23 07:32:02;;;;;;;2.10;1.90;;;21.10;99.90;;;;;;5030625;28;20850;-73
2023/07/23 07:34:28;;;;;;;2.27;2.00;;;21.20;99.90;;;;;;5026423;28;20467;-73
2023/07/23 07:36:55;;;;;;;2.47;2.00;;;21.30;99.90;;;;;;5029989;28;20856;-73
2023/07/23 07:39:22;;;;;;;2.40;2.20;;;21.30;99.90;;;;;;5030348;28;20463;-73
2023/07/23 07:41:50;;;;;;;3.80;2.37;;;21.30;99.90;;;;;;5014169;28;20472;-72
2023/07/23 07:44:17;;;;;;;3.80;2.13;;;21.40;99.90;;;;;;5030285;28;20467;-72
2023/07/23 07:46:43;;;;;;;3.43;2.30;;;21.40;99.90;;;;;;5029317;28;20978;-73
2023/07/23 07:49:10;;;;;;;2.33;2.13;;;21.40;99.90;;;;;;5030451;28;20490;-73
2023/07/23 07:51:38;;;;;;;2.43;2.23;;;21.50;99.90;;;;;;5029969;28;20474;-75
2023/07/23 07:54:05;;;;;;;2.07;1.97;;;21.50;99.90;;;;;;5030380;28;20463;-73
2023/07/23 07:56:32;;;;;;;2.27;2.00;;;21.50;99.90;;;;;;5029717;28;20482;-73
2023/07/23 07:59:02;;;;;;;3.13;2.40;;;21.60;99.90;;;;;;5032904;28;20485;-74
2023/07/23 08:01:29;;;;;;;2.80;2.20;;;21.60;99.90;;;;;;5033737;28;20470;-74
2023/07/23 08:03:56;;;;;;;2.00;1.90;;;21.60;99.90;;;;;;5034735;28;20959;-73
2023/07/23 08:06:24;;;;;;;1.80;1.60;;;21.70;99.90;;;;;;5033689;28;20529;-73
2023/07/23 08:08:52;;;;;;;2.50;2.30;;;21.80;99.90;;;;;;5033574;28;20480;-77
2023/07/23 08:11:19;;;;;;;2.47;2.20;;;22.00;99.90;;;;;;5033773;28;20464;-72
2023/07/23 08:13:47;;;;;;;2.23;2.00;;;22.20;99.90;;;;;;5033262;28;20474;-72
2023/07/23 08:16:17;;;;;;;3.03;2.00;;;22.40;99.90;;;;;;5033120;28;20496;-72
2023/07/23 08:18:45;;;;;;;2.80;1.93;;;22.50;99.90;;;;;;5033260;28;20858;-72
2023/07/23 08:21:12;;;;;;;2.60;1.77;;;22.60;99.90;;;;;;5033465;28;20468;-73
2023/07/23 08:23:39;;;;;;;2.13;1.93;;;22.60;99.90;;;;;;5033282;28;20464;-74
2023/07/23 08:26:07;;;;;;;2.50;2.00;;;22.60;99.90;;;;;;5032333;28;20475;-74
2023/07/23 08:28:38;;;;;;;4.60;1.77;;;22.60;99.90;;;;;;5033213;28;20866;-74
2023/07/23 08:31:06;;;;;;;2.80;1.80;;;22.60;99.90;;;;;;5033010;28;20473;-73
2023/07/23 08:33:34;;;;;;;2.60;2.33;;;22.60;99.90;;;;;;5032974;28;20468;-74
2023/07/23 08:36:01;;;;;;;2.33;2.00;;;22.70;99.90;;;;;;5032145;28;20588;-73
2023/07/23 08:38:29;;;;;;;1.67;1.43;;;22.70;99.90;;;;;;5032797;28;20489;-73
2023/07/23 08:41:00;;;;;;;3.77;1.73;;;22.80;99.90;;;;;;5032996;28;20468;-73
2023/07/23 08:44:05;;;;;;;2.50;2.30;;;22.90;99.90;;;;;;5033308;28;20861;-73
2023/07/23 08:46:32;;;;;;;1.73;1.50;;;23.00;99.90;;;;;;5032759;28;20456;-73
2023/07/23 08:49:05;;;;;;;1.83;1.60;;;23.00;99.90;;;;;;5033027;28;20480;-74
2023/07/23 08:51:40;;;;;;;1.53;1.43;;;22.90;99.90;;;;;;5032640;28;20459;-73
2023/07/23 08:54:08;;;;;;;3.07;2.03;;;22.80;99.90;;;;;;5032935;28;20469;-72
2023/07/23 08:56:36;;;;;;;2.30;1.93;;;22.80;99.90;;;;;;5032401;28;20487;-72
2023/07/23 08:59:05;;;;;;;1.90;1.80;;;22.90;99.90;;;;;;5032833;28;20492;-73
2023/07/23 09:01:34;;;;;;;2.23;1.70;;;22.80;99.90;;;;;;5032233;28;20490;-72
2023/07/23 09:04:04;;;;;;;3.10;1.90;;;22.90;99.90;;;;;;5032662;28;20484;-72
2023/07/23 09:06:30;;;;;;;1.60;1.50;;;22.90;99.90;;;;;;5032755;28;20477;-72
2023/07/23 09:09:05;;;;;;;2.17;1.90;;;22.80;99.80;;;;;;5032383;28;20573;-73
2023/07/23 09:11:31;;;;;;;1.80;1.50;;;22.80;99.20;;;;;;5031451;28;20461;-73
2023/07/23 09:14:00;;;;;;;1.57;1.40;;;22.80;99.90;;;;;;5032415;28;20839;-73
2023/07/23 09:16:27;;;;;;;3.53;1.83;;;22.90;99.80;;;;;;5031960;28;20470;-72
2023/07/23 09:18:54;;;;;;;2.57;1.70;;;22.90;99.90;;;;;;5025080;28;20905;-73
2023/07/23 09:21:26;;;;;;;1.90;1.70;;;23.00;99.90;;;;;;5011534;28;20481;-73
2023/07/23 09:23:54;;;;;;;1.70;1.40;;;23.10;99.90;;;;;;5030916;28;20469;-73
2023/07/23 09:26:24;;;;;;;2.20;2.00;;;23.10;99.50;;;;;;5029062;28;20471;-73
2023/07/23 09:28:53;;;;;;;1.57;1.47;;;23.20;99.90;;;;;;5030989;28;21021;-72
2023/07/23 09:31:26;;;;;;;2.03;1.83;;;23.40;99.50;;;;;;5031192;28;20469;-72
2023/07/23 09:33:54;;;;;;;1.57;1.47;;;23.40;99.00;;;;;;5031021;28;20493;-72
2023/07/23 09:36:21;;;;;;;2.47;1.80;;;23.50;97.80;;;;;;5028382;28;20519;-72
2023/07/23 09:38:56;;;;;;;1.70;1.60;;;23.60;98.60;;;;;;5028523;28;20855;-72
2023/07/23 09:41:23;;;;;;;2.17;1.77;;;23.70;99.60;;;;;;5031471;28;20488;-72
2023/07/23 09:43:50;;;;;;;2.17;1.93;;;23.80;98.80;;;;;;5031392;28;20466;-72
2023/07/23 09:46:17;;;;;;;1.80;1.60;;;23.90;97.90;;;;;;5030584;28;20478;-72
2023/07/23 09:48:48;;;;;;;2.07;1.67;;;23.90;98.80;;;;;;5031317;28;20867;-73
2023/07/23 09:51:15;;;;;;;2.70;1.97;;;23.90;98.10;;;;;;5031763;28;20462;-72
2023/07/23 09:53:45;;;;;;;1.70;1.53;;;23.80;99.00;;;;;;5031053;28;20470;-72
2023/07/23 09:56:14;;;;;;;1.50;1.37;;;23.80;98.40;;;;;;5030620;28;20469;-72
2023/07/23 09:58:43;;;;;;;1.37;1.27;;;23.90;97.40;;;;;;5030283;28;20519;-72
2023/07/23 10:01:10;;;;;;;1.97;1.77;;;23.90;96.90;;;;;;5030541;28;20847;-72
2023/07/23 10:03:38;;;;;;;2.10;1.40;;;24.00;98.20;;;;;;5031070;28;20463;-72
2023/07/23 10:06:10;;;;;;;5.67;1.97;;;24.20;99.90;;;;;;5030344;28;20474;-72
2023/07/23 10:08:39;;;;;;;2.00;1.80;;;24.50;97.30;;;;;;5031026;28;20491;-72
2023/07/23 10:11:07;;;;;;;1.40;1.30;;;24.60;97.30;;;;;;5030486;28;21074;-72
2023/07/23 10:13:36;;;;;;;2.10;1.90;;;24.70;96.50;;;;;;5028444;28;20472;-73
2023/07/23 10:16:06;;;;;;;2.07;1.70;;;24.90;96.80;;;;;;5024627;28;20511;-72
2023/07/23 10:18:36;;;;;;;3.20;1.83;;;25.10;97.80;;;;;;5030213;28;20488;-73
2023/07/23 10:21:06;;;;;;;2.10;1.90;;;25.20;98.30;;;;;;5004677;28;20522;-73
2023/07/23 10:23:33;;;;;;;4.67;2.03;;;25.50;97.70;;;;;;5031361;28;20475;-72
2023/07/23 10:26:22;;;;;;;2.00;1.80;;;25.60;96.50;;;;;;5030562;28;20582;-73
2023/07/23 10:28:56;;;;;;;3.40;1.97;;;25.50;96.80;;;;;;5024148;28;20519;-73
2023/07/23 10:31:25;;;;;;;2.40;2.17;;;25.50;96.50;;;;;;5032227;28;20561;-73
2023/07/23 10:33:52;;;;;;;1.97;1.67;;;25.40;95.60;;;;;;5025622;28;20551;-73
2023/07/23 10:36:22;;;;;;;2.40;2.00;;;25.40;96.20;;;;;;5036432;28;20544;-73
2023/07/23 10:39:02;;;;;;;1.70;1.60;;;25.50;97.10;;;;;;5030282;28;20488;-73
2023/07/23 10:41:57;;;;;;;2.53;1.60;;;25.70;96.50;;;;;;5038541;28;20460;-72
2023/07/23 10:44:29;;;;;;;3.93;2.10;;;25.80;96.30;;;;;;5034662;28;20576;-73
2023/07/23 10:46:58;;;;;;;1.77;1.67;;;26.00;96.80;;;;;;5026635;28;20464;-73
2023/07/23 10:49:29;;;;;;;1.97;1.67;;;26.10;95.60;;;;;;5021856;28;20468;-73
2023/07/23 10:52:15;;;;;;;2.20;2.00;;;26.20;95.80;;;;;;5028981;28;20452;-72
2023/07/23 10:54:43;;;;;;;2.03;1.83;;;26.30;95.30;;;;;;5028103;28;21304;-73
2023/07/23 10:57:23;;;;;;;2.53;1.70;;;26.20;95.40;;;;;;5030443;28;20998;-76
2023/07/23 10:59:54;;;;;;;2.63;1.90;;;25.80;95.40;;;;;;5018264;28;20476;-73
2023/07/23 11:02:25;;;;;;;2.63;2.10;;;25.60;95.60;;;;;;5009104;28;20497;-75
2023/07/23 11:04:56;;;;;;;4.90;2.17;;;25.30;95.50;;;;;;5027132;28;20465;-75
2023/07/23 11:07:26;;;;;;;2.93;1.90;;;25.30;96.20;;;;;;5028386;28;20488;-73
2023/07/23 11:09:55;;;;;;;1.70;1.57;;;25.60;97.70;;;;;;5029052;28;20655;-75
2023/07/23 11:12:24;;;;;;;1.90;1.70;;;25.90;96.80;;;;;;5029160;28;20463;-74
2023/07/23 11:14:53;;;;;;;2.33;2.13;;;26.30;97.40;;;;;;5028820;28;20468;-75
2023/07/23 11:17:20;;;;;;;2.50;2.23;;;26.40;97.20;;;;;;5029965;28;20484;-74
2023/07/23 11:19:48;;;;;;;2.07;1.77;;;26.40;95.00;;;;;;5030033;28;20797;-75
2023/07/23 11:22:15;;;;;;;2.40;2.20;;;26.30;95.80;;;;;;5028826;28;20471;-75
2023/07/23 11:24:41;;;;;;;2.30;2.00;;;26.30;95.60;;;;;;5030110;28;20467;-74
2023/07/23 11:27:11;;;;;;;2.20;2.00;;;26.10;95.10;;;;;;5029582;28;20488;-75
2023/07/23 11:29:37;;;;;;;3.03;2.30;;;26.00;95.80;;;;;;5028622;28;20515;-74
2023/07/23 11:32:07;;;;;;;2.13;1.93;;;26.20;95.00;;;;;;5029451;28;20464;-74
2023/07/23 11:34:33;;;;;;;2.27;1.67;;;26.50;97.10;;;;;;5032850;28;20464;-75
2023/07/23 11:37:00;;;;;;;3.00;2.27;;;26.70;94.00;;;;;;5032975;28;20976;-74
2023/07/23 11:39:27;;;;;;;3.20;2.60;;;26.70;93.70;;;;;;5033648;28;20469;-75
2023/07/23 11:41:54;;;;;;;2.33;2.13;;;26.80;93.80;;;;;;5034155;28;20460;-75
2023/07/23 11:44:21;;;;;;;2.10;1.87;;;26.80;93.00;;;;;;5028786;28;20993;-74
2023/07/23 11:46:48;;;;;;;2.13;1.93;;;26.90;94.20;;;;;;5033175;28;20468;-74
2023/07/23 11:49:17;;;;;;;3.10;2.30;;;27.00;93.00;;;;;;5032664;28;20469;-75
2023/07/23 11:51:44;;;;;;;4.03;2.67;;;27.20;93.80;;;;;;5033204;28;20499;-75
2023/07/23 11:54:12;;;;;;;1.90;1.80;;;27.10;93.50;;;;;;5032562;28;20474;-75
2023/07/23 11:56:41;;;;;;;2.40;2.20;;;26.90;93.00;;;;;;5032445;28;20471;-75
2023/07/23 11:59:09;;;;;;;2.20;2.00;;;26.80;94.20;;;;;;5031873;28;20486;-74
2023/07/23 12:01:36;;;;;;;2.50;2.23;;;26.90;94.10;;;;;;5033284;28;20464;-74
2023/07/23 12:04:04;;;;;;;2.60;2.27;;;26.90;93.60;;;;;;5032376;28;20986;-75
2023/07/23 12:06:33;;;;;;;2.37;2.00;;;26.90;94.20;;;;;;5032321;28;20489;-74
2023/07/23 12:09:00;;;;;;;2.33;1.97;;;27.00;93.20;;;;;;5032329;28;20477;-75
2023/07/23 12:11:29;;;;;;;2.10;1.90;;;27.00;93.80;;;;;;5030213;28;20842;-75
2023/07/23 12:13:57;;;;;;;2.67;2.33;;;26.90;92.20;;;;;;5032437;28;20468;-75
2023/07/23 12:16:36;;;;;;;2.37;2.17;;;26.80;91.90;;;;;;5029969;28;20567;-74
2023/07/23 12:19:05;;;;;;;2.20;1.80;;;26.60;91.50;;;;;;5031705;28;20476;-74
2023/07/23 12:21:35;;;;;;;2.20;2.00;;;26.40;92.40;;;;;;5033065;28;20469;-75
2023/07/23 12:24:17;;;;;;;2.43;2.23;;;26.30;92.10;;;;;;5031953;28;20894;-75
2023/07/23 12:26:44;;;;;;;2.30;2.10;;;26.00;92.20;;;;;;5031919;28;20476;-74
2023/07/23 12:29:11;;;;;;;2.83;2.30;;;25.90;92.30;;;;;;5020323;28;20475;-74
2023/07/23 12:31:42;;;;;;;2.80;1.97;;;25.80;92.80;;;;;;5016428;28;20469;-75
2023/07/23 12:34:09;;;;;;;1.97;1.73;;;25.80;93.50;;;;;;5013218;28;20467;-73
2023/07/23 12:36:37;;;;;;;2.57;2.33;;;25.60;92.50;;;;;;5012843;28;20469;-76
2023/07/23 12:39:04;;;;;;;2.63;2.07;;;25.50;92.70;;;;;;5013671;28;20481;-75
2023/07/23 12:41:31;;;;;;;2.77;2.13;;;25.40;92.70;;;;;;5012162;28;20515;-76
2023/07/23 12:43:58;;;;;;;2.00;1.80;;;25.40;93.40;;;;;;5025343;28;20476;-76
2023/07/23 12:46:25;;;;;;;2.00;1.80;;;25.20;92.80;;;;;;5015494;28;20575;-75
2023/07/23 12:48:52;;;;;;;2.77;2.07;;;25.20;92.90;;;;;;5027730;28;20480;-75
2023/07/23 12:51:19;;;;;;;2.47;2.20;;;25.10;93.50;;;;;;5015563;28;20476;-75
2023/07/23 12:53:47;;;;;;;3.10;2.37;;;25.10;93.80;;;;;;5059381;22;21223;-93
2023/07/23 12:56:14;;;;;;;2.80;2.50;;;25.10;93.20;;;;;;5052138;28;20512;-94
2023/07/23 12:58:41;;;;;;;2.07;1.87;;;25.20;93.90;;;;;;5068706;22;20500;-71
2023/07/23 13:01:08;;;;;;;2.70;2.10;;;25.20;93.80;;;;;;5026843;28;20465;-71
2023/07/23 13:03:35;;;;;;;1.90;1.70;;;25.20;93.60;;;;;;5029893;28;20471;-70
2023/07/23 13:06:01;;;;;;;2.80;2.33;;;25.20;93.90;;;;;;5029372;28;20832;-70
2023/07/23 13:08:28;;;;;;;2.13;1.73;;;25.10;93.80;;;;;;5030240;28;20484;-70
2023/07/23 13:10:56;;;;;;;2.77;2.23;;;25.10;94.40;;;;;;5030240;28;20465;-71